sensor_id;sensor_type;location;lat;lon;timestamp;temperature;humidity
17728;DHT22;8984;49.268;12.302;2023-04-25T00:01:39;9.60;99.90
17728;DHT22;8984;49.268;12.302;2023-04-25T00:04:08;9.80;99.90
17728;DHT22;8984;49.268;12.302;2023-04-25T00:06:41;9.60;99.90
17728;DHT22;8984;49.268;12.302;2023-04-25T00:09:10;9.70;99.90
17728;DHT22;8984;49.268;12.302;2023-04-25T00:11:42;9.70;99.90
17728;DHT22;8984;49.268;12.302;2023-04-25T00:14:14;9.60;99.90
17728;DHT22;8984;49.268;12.302;2023-04-25T00:16:43;9.70;99.90
17728;DHT22;8984;49.268;12.302;2023-04-25T00:19:11;9.70;99.90
17728;DHT22;8984;49.268;12.302;2023-04-25T00:21:54;9.70;99.90
17728;DHT22;8984;49.268;12.302;2023-04-25T00:24:37;9.70;99.90
17728;DHT22;8984;49.268;12.302;2023-04-25T00:27:10;9.70;99.90
17728;DHT22;8984;49.268;12.302;2023-04-25T00:29:37;9.70;99.90
17728;DHT22;8984;49.268;12.302;2023-04-25T00:32:17;9.60;99.90
17728;DHT22;8984;49.268;12.302;2023-04-25T00:34:45;9.60;99.90
17728;DHT22;8984;49.268;12.302;2023-04-25T00:37:20;9.70;99.90
17728;DHT22;8984;49.268;12.302;2023-04-25T00:39:52;9.70;99.90
17728;DHT22;8984;49.268;12.302;2023-04-25T00:42:22;9.60;99.90
17728;DHT22;8984;49.268;12.302;2023-04-25T00:44:57;9.60;99.90
17728;DHT22;8984;49.268;12.302;2023-04-25T00:47:26;9.70;99.90
17728;DHT22;8984;49.268;12.302;2023-04-25T00:50:00;9.80;99.90
17728;DHT22;8984;49.268;12.302;2023-04-25T00:52:37;9.70;99.90
17728;DHT22;8984;49.268;12.302;2023-04-25T00:55:07;9.70;99.90
17728;DHT22;8984;49.268;12.302;2023-04-25T00:57:35;9.70;99.90
17728;DHT22;8984;49.268;12.302;2023-04-25T01:00:12;9.70;99.90
17728;DHT22;8984;49.268;12.302;2023-04-25T01:02:42;9.70;99.90
17728;DHT22;8984;49.268;12.302;2023-04-25T01:05:11;9.70;99.90
17728;DHT22;8984;49.268;12.302;2023-04-25T01:07:40;9.70;99.90
17728;DHT22;8984;49.268;12.302;2023-04-25T01:10:08;9.80;99.90
17728;DHT22;8984;49.268;12.302;2023-04-25T01:12:36;9.70;99.90
17728;DHT22;8984;49.268;12.302;2023-04-25T01:15:10;9.60;99.90
17728;DHT22;8984;49.268;12.302;2023-04-25T01:17:41;9.60;99.90
17728;DHT22;8984;49.268;12.302;2023-04-25T01:20:23;9.60;99.90
17728;DHT22;8984;49.268;12.302;2023-04-25T01:22:56;9.60;99.90
17728;DHT22;8984;49.268;12.302;2023-04-25T01:25:31;9.60;99.90
17728;DHT22;8984;49.268;12.302;2023-04-25T01:28:01;9.70;99.90
17728;DHT22;8984;49.268;12.302;2023-04-25T01:30:35;9.70;99.90
17728;DHT22;8984;49.268;12.302;2023-04-25T01:33:07;9.70;99.90
17728;DHT22;8984;49.268;12.302;2023-04-25T01:35:46;9.70;99.90
17728;DHT22;8984;49.268;12.302;2023-04-25T01:38:16;9.60;99.90
17728;DHT22;8984;49.268;12.302;2023-04-25T01:40:49;9.70;99.90
17728;DHT22;8984;49.268;12.302;2023-04-25T01:43:18;9.70;99.90
17728;DHT22;8984;49.268;12.302;2023-04-25T01:48:34;9.70;99.90
17728;DHT22;8984;49.268;12.302;2023-04-25T01:51:06;9.60;99.90
17728;DHT22;8984;49.268;12.302;2023-04-25T01:53:36;9.60;99.90
17728;DHT22;8984;49.268;12.302;2023-04-25T01:56:07;9.70;99.90
17728;DHT22;8984;49.268;12.302;2023-04-25T01:58:40;9.70;99.90
17728;DHT22;8984;49.268;12.302;2023-04-25T02:01:19;9.70;99.90
17728;DHT22;8984;49.268;12.302;2023-04-25T02:03:52;9.70;99.90
17728;DHT22;8984;49.268;12.302;2023-04-25T02:06:23;9.70;99.90
17728;DHT22;8984;49.268;12.302;2023-04-25T02:08:53;9.90;99.90
17728;DHT22;8984;49.268;12.302;2023-04-25T02:11:26;9.80;99.90
17728;DHT22;8984;49.268;12.302;2023-04-25T02:13:55;9.80;99.90
17728;DHT22;8984;49.268;12.302;2023-04-25T02:16:25;9.80;99.90
17728;DHT22;8984;49.268;12.302;2023-04-25T02:18:56;9.80;99.90
17728;DHT22;8984;49.268;12.302;2023-04-25T02:21:24;9.80;99.90
17728;DHT22;8984;49.268;12.302;2023-04-25T02:23:54;9.80;99.90
17728;DHT22;8984;49.268;12.302;2023-04-25T02:26:23;9.80;99.90
17728;DHT22;8984;49.268;12.302;2023-04-25T02:28:52;9.70;99.90
17728;DHT22;8984;49.268;12.302;2023-04-25T02:31:22;9.80;99.90
17728;DHT22;8984;49.268;12.302;2023-04-25T02:33:58;9.80;99.90
17728;DHT22;8984;49.268;12.302;2023-04-25T02:36:36;9.70;99.90
17728;DHT22;8984;49.268;12.302;2023-04-25T02:39:08;9.70;99.90
17728;DHT22;8984;49.268;12.302;2023-04-25T02:41:38;9.80;99.90
17728;DHT22;8984;49.268;12.302;2023-04-25T02:44:11;9.90;99.90
17728;DHT22;8984;49.268;12.302;2023-04-25T02:46:42;9.80;99.90
17728;DHT22;8984;49.268;12.302;2023-04-25T02:49:12;9.90;99.90
17728;DHT22;8984;49.268;12.302;2023-04-25T02:51:41;9.90;99.90
17728;DHT22;8984;49.268;12.302;2023-04-25T02:54:15;10.00;99.90
17728;DHT22;8984;49.268;12.302;2023-04-25T02:56:45;10.00;99.90
17728;DHT22;8984;49.268;12.302;2023-04-25T02:59:13;10.00;99.90
17728;DHT22;8984;49.268;12.302;2023-04-25T03:01:44;10.10;99.90
17728;DHT22;8984;49.268;12.302;2023-04-25T03:04:14;10.10;99.90
17728;DHT22;8984;49.268;12.302;2023-04-25T03:06:46;10.20;99.90
17728;DHT22;8984;49.268;12.302;2023-04-25T03:12:15;10.30;99.90
17728;DHT22;8984;49.268;12.302;2023-04-25T03:15:11;10.30;99.90
17728;DHT22;8984;49.268;12.302;2023-04-25T03:17:40;10.30;99.90
17728;DHT22;8984;49.268;12.302;2023-04-25T03:20:16;10.30;99.90
17728;DHT22;8984;49.268;12.302;2023-04-25T03:22:45;10.40;99.90
17728;DHT22;8984;49.268;12.302;2023-04-25T03:25:18;10.40;99.90
17728;DHT22;8984;49.268;12.302;2023-04-25T03:27:46;10.50;99.90
17728;DHT22;8984;49.268;12.302;2023-04-25T03:30:15;10.60;99.90
17728;DHT22;8984;49.268;12.302;2023-04-25T03:32:43;10.60;99.90
17728;DHT22;8984;49.268;12.302;2023-04-25T03:35:14;10.70;99.90
17728;DHT22;8984;49.268;12.302;2023-04-25T03:37:45;10.70;99.90
17728;DHT22;8984;49.268;12.302;2023-04-25T03:40:30;10.80;99.90
17728;DHT22;8984;49.268;12.302;2023-04-25T03:43:14;10.70;99.90
17728;DHT22;8984;49.268;12.302;2023-04-25T03:46:00;10.70;99.90
17728;DHT22;8984;49.268;12.302;2023-04-25T03:48:41;10.90;99.90
17728;DHT22;8984;49.268;12.302;2023-04-25T03:51:11;10.70;99.90
17728;DHT22;8984;49.268;12.302;2023-04-25T03:53:46;10.70;99.90
17728;DHT22;8984;49.268;12.302;2023-04-25T03:56:21;10.70;99.90
17728;DHT22;8984;49.268;12.302;2023-04-25T03:58:48;10.80;99.90
17728;DHT22;8984;49.268;12.302;2023-04-25T04:01:22;10.80;99.90
17728;DHT22;8984;49.268;12.302;2023-04-25T04:03:50;10.80;99.90
17728;DHT22;8984;49.268;12.302;2023-04-25T04:06:33;10.80;99.90
17728;DHT22;8984;49.268;12.302;2023-04-25T04:09:09;10.90;99.90
17728;DHT22;8984;49.268;12.302;2023-04-25T04:12:29;10.90;99.90
17728;DHT22;8984;49.268;12.302;2023-04-25T04:15:04;11.00;99.90
17728;DHT22;8984;49.268;12.302;2023-04-25T04:17:32;11.00;99.90
17728;DHT22;8984;49.268;12.302;2023-04-25T04:20:09;11.00;99.90
17728;DHT22;8984;49.268;12.302;2023-04-25T04:22:51;11.00;99.90
17728;DHT22;8984;49.268;12.302;2023-04-25T04:25:34;11.00;99.90
17728;DHT22;8984;49.268;12.302;2023-04-25T04:28:10;11.00;99.90
17728;DHT22;8984;49.268;12.302;2023-04-25T04:31:08;11.00;99.90
17728;DHT22;8984;49.268;12.302;2023-04-25T04:33:54;11.10;99.90
17728;DHT22;8984;49.268;12.302;2023-04-25T04:36:29;11.10;99.90
17728;DHT22;8984;49.268;12.302;2023-04-25T04:39:05;11.00;99.90
17728;DHT22;8984;49.268;12.302;2023-04-25T04:41:50;11.00;99.90
17728;DHT22;8984;49.268;12.302;2023-04-25T05:16:47;11.50;99.90
17728;DHT22;8984;49.268;12.302;2023-04-25T05:19:17;11.50;99.90
17728;DHT22;8984;49.268;12.302;2023-04-25T05:21:59;11.60;99.90
17728;DHT22;8984;49.268;12.302;2023-04-25T05:24:38;11.80;99.90
17728;DHT22;8984;49.268;12.302;2023-04-25T05:27:13;11.90;99.90
17728;DHT22;8984;49.268;12.302;2023-04-25T05:29:40;12.00;99.90
17728;DHT22;8984;49.268;12.302;2023-04-25T05:34:54;12.20;99.90
17728;DHT22;8984;49.268;12.302;2023-04-25T05:37:34;12.40;99.90
17728;DHT22;8984;49.268;12.302;2023-04-25T05:40:12;12.60;99.90
17728;DHT22;8984;49.268;12.302;2023-04-25T05:43:08;12.70;99.90
17728;DHT22;8984;49.268;12.302;2023-04-25T05:48:29;13.00;99.90
17728;DHT22;8984;49.268;12.302;2023-04-25T05:59:41;13.90;99.90
17728;DHT22;8984;49.268;12.302;2023-04-25T06:02:11;14.00;99.90
17728;DHT22;8984;49.268;12.302;2023-04-25T06:04:39;13.90;99.90
17728;DHT22;8984;49.268;12.302;2023-04-25T06:07:34;13.90;99.90
17728;DHT22;8984;49.268;12.302;2023-04-25T06:10:01;13.80;99.90
17728;DHT22;8984;49.268;12.302;2023-04-25T06:12:32;13.90;99.90
17728;DHT22;8984;49.268;12.302;2023-04-25T06:15:00;14.20;99.90
17728;DHT22;8984;49.268;12.302;2023-04-25T06:17:27;14.30;99.90
17728;DHT22;8984;49.268;12.302;2023-04-25T06:19:54;14.70;99.90
17728;DHT22;8984;49.268;12.302;2023-04-25T06:25:11;14.70;99.90
17728;DHT22;8984;49.268;12.302;2023-04-25T06:30:50;15.00;99.90
17728;DHT22;8984;49.268;12.302;2023-04-25T06:33:25;15.30;99.90
17728;DHT22;8984;49.268;12.302;2023-04-25T06:36:12;15.10;99.90
17728;DHT22;8984;49.268;12.302;2023-04-25T06:38:53;15.20;99.90
17728;DHT22;8984;49.268;12.302;2023-04-25T06:41:21;15.10;99.90
17728;DHT22;8984;49.268;12.302;2023-04-25T06:43:48;14.80;99.90
17728;DHT22;8984;49.268;12.302;2023-04-25T06:56:06;14.60;99.90
17728;DHT22;8984;49.268;12.302;2023-04-25T06:58:43;14.00;99.90
17728;DHT22;8984;49.268;12.302;2023-04-25T07:01:18;13.90;99.90
17728;DHT22;8984;49.268;12.302;2023-04-25T07:04:05;13.80;99.90
17728;DHT22;8984;49.268;12.302;2023-04-25T07:06:34;13.70;99.90
17728;DHT22;8984;49.268;12.302;2023-04-25T07:09:20;13.60;99.90
17728;DHT22;8984;49.268;12.302;2023-04-25T07:11:57;13.70;99.90
17728;DHT22;8984;49.268;12.302;2023-04-25T07:14:27;13.70;99.90
17728;DHT22;8984;49.268;12.302;2023-04-25T07:16:55;13.60;99.90
17728;DHT22;8984;49.268;12.302;2023-04-25T07:19:42;13.40;99.90
17728;DHT22;8984;49.268;12.302;2023-04-25T07:22:25;13.40;99.90
17728;DHT22;8984;49.268;12.302;2023-04-25T07:25:09;13.40;99.90
17728;DHT22;8984;49.268;12.302;2023-04-25T07:27:59;13.60;99.90
17728;DHT22;8984;49.268;12.302;2023-04-25T07:30:27;13.60;99.90
17728;DHT22;8984;49.268;12.302;2023-04-25T07:32:57;13.70;99.90
17728;DHT22;8984;49.268;12.302;2023-04-25T07:35:36;13.70;99.90
17728;DHT22;8984;49.268;12.302;2023-04-25T07:38:11;13.30;99.90
17728;DHT22;8984;49.268;12.302;2023-04-25T07:40:49;13.20;99.90
17728;DHT22;8984;49.268;12.302;2023-04-25T07:43:26;13.40;99.90
17728;DHT22;8984;49.268;12.302;2023-04-25T07:46:03;13.50;99.90
17728;DHT22;8984;49.268;12.302;2023-04-25T07:48:33;13.70;99.90
17728;DHT22;8984;49.268;12.302;2023-04-25T07:51:06;13.70;99.90
17728;DHT22;8984;49.268;12.302;2023-04-25T07:53:35;13.00;99.90
17728;DHT22;8984;49.268;12.302;2023-04-25T07:56:07;13.30;99.90
17728;DHT22;8984;49.268;12.302;2023-04-25T07:58:39;13.30;99.90
17728;DHT22;8984;49.268;12.302;2023-04-25T08:01:30;13.50;99.90
17728;DHT22;8984;49.268;12.302;2023-04-25T08:03:59;13.30;99.90
17728;DHT22;8984;49.268;12.302;2023-04-25T08:06:28;13.10;99.90
17728;DHT22;8984;49.268;12.302;2023-04-25T08:09:01;13.10;99.90
17728;DHT22;8984;49.268;12.302;2023-04-25T08:11:35;13.40;99.90
17728;DHT22;8984;49.268;12.302;2023-04-25T08:14:08;13.50;99.90
17728;DHT22;8984;49.268;12.302;2023-04-25T08:22:07;13.90;99.90
17728;DHT22;8984;49.268;12.302;2023-04-25T08:24:34;13.90;99.90
17728;DHT22;8984;49.268;12.302;2023-04-25T08:27:10;13.70;99.90
17728;DHT22;8984;49.268;12.302;2023-04-25T08:30:25;13.50;99.90
17728;DHT22;8984;49.268;12.302;2023-04-25T08:32:52;13.50;99.90
17728;DHT22;8984;49.268;12.302;2023-04-25T08:35:26;13.30;99.90
17728;DHT22;8984;49.268;12.302;2023-04-25T08:37:59;13.50;99.90
17728;DHT22;8984;49.268;12.302;2023-04-25T08:40:28;13.60;99.90
17728;DHT22;8984;49.268;12.302;2023-04-25T08:43:03;13.50;99.90
17728;DHT22;8984;49.268;12.302;2023-04-25T08:45:40;13.50;99.90
17728;DHT22;8984;49.268;12.302;2023-04-25T08:48:13;13.60;99.90
17728;DHT22;8984;49.268;12.302;2023-04-25T08:50:50;13.60;99.90
17728;DHT22;8984;49.268;12.302;2023-04-25T09:34:50;12.60;99.90
17728;DHT22;8984;49.268;12.302;2023-04-25T09:37:19;12.70;99.90
17728;DHT22;8984;49.268;12.302;2023-04-25T09:39:46;12.60;99.90
17728;DHT22;8984;49.268;12.302;2023-04-25T09:42:16;11.70;99.90
17728;DHT22;8984;49.268;12.302;2023-04-25T09:44:44;12.00;99.90
17728;DHT22;8984;49.268;12.302;2023-04-25T09:47:11;11.70;99.90
17728;DHT22;8984;49.268;12.302;2023-04-25T09:49:43;12.10;99.90
17728;DHT22;8984;49.268;12.302;2023-04-25T09:52:16;12.10;99.90
17728;DHT22;8984;49.268;12.302;2023-04-25T09:54:43;12.40;99.90
17728;DHT22;8984;49.268;12.302;2023-04-25T09:57:14;12.40;99.90
17728;DHT22;8984;49.268;12.302;2023-04-25T09:59:45;12.40;99.90
17728;DHT22;8984;49.268;12.302;2023-04-25T10:02:14;12.50;99.90
17728;DHT22;8984;49.268;12.302;2023-04-25T10:04:41;12.40;99.90
17728;DHT22;8984;49.268;12.302;2023-04-25T10:07:09;12.10;99.90
17728;DHT22;8984;49.268;12.302;2023-04-25T10:09:39;12.10;99.90
17728;DHT22;8984;49.268;12.302;2023-04-25T10:12:06;11.80;99.90
17728;DHT22;8984;49.268;12.302;2023-04-25T10:14:33;11.90;99.90
17728;DHT22;8984;49.268;12.302;2023-04-25T10:17:01;11.70;99.90
17728;DHT22;8984;49.268;12.302;2023-04-25T10:19:28;11.40;99.90
17728;DHT22;8984;49.268;12.302;2023-04-25T10:22:02;11.90;99.90
17728;DHT22;8984;49.268;12.302;2023-04-25T10:24:31;12.20;99.90
17728;DHT22;8984;49.268;12.302;2023-04-25T10:26:59;12.90;99.90
17728;DHT22;8984;49.268;12.302;2023-04-25T10:29:28;12.60;99.90
17728;DHT22;8984;49.268;12.302;2023-04-25T10:31:57;12.90;99.90
17728;DHT22;8984;49.268;12.302;2023-04-25T10:34:37;13.20;99.90
17728;DHT22;8984;49.268;12.302;2023-04-25T10:37:05;13.30;99.90
17728;DHT22;8984;49.268;12.302;2023-04-25T10:39:34;13.60;99.90
17728;DHT22;8984;49.268;12.302;2023-04-25T10:42:06;14.00;99.90
17728;DHT22;8984;49.268;12.302;2023-04-25T10:44:34;14.40;99.90
17728;DHT22;8984;49.268;12.302;2023-04-25T10:47:02;14.60;99.90
17728;DHT22;8984;49.268;12.302;2023-04-25T10:49:32;14.60;99.90
17728;DHT22;8984;49.268;12.302;2023-04-25T10:52:17;15.20;99.90
17728;DHT22;8984;49.268;12.302;2023-04-25T10:54:51;15.60;99.90
17728;DHT22;8984;49.268;12.302;2023-04-25T10:57:29;15.20;99.90
17728;DHT22;8984;49.268;12.302;2023-04-25T11:00:01;15.40;99.90
17728;DHT22;8984;49.268;12.302;2023-04-25T11:02:32;15.70;99.90
17728;DHT22;8984;49.268;12.302;2023-04-25T11:05:03;16.10;99.90
17728;DHT22;8984;49.268;12.302;2023-04-25T11:07:37;16.30;99.90
17728;DHT22;8984;49.268;12.302;2023-04-25T11:10:06;15.90;99.90
17728;DHT22;8984;49.268;12.302;2023-04-25T11:12:34;15.20;99.90
17728;DHT22;8984;49.268;12.302;2023-04-25T11:15:04;15.30;99.90
17728;DHT22;8984;49.268;12.302;2023-04-25T11:17:31;15.00;99.90
17728;DHT22;8984;49.268;12.302;2023-04-25T11:19:58;15.00;99.90
17728;DHT22;8984;49.268;12.302;2023-04-25T11:22:26;14.90;99.90
17728;DHT22;8984;49.268;12.302;2023-04-25T11:24:54;14.90;99.90
17728;DHT22;8984;49.268;12.302;2023-04-25T11:27:21;14.40;99.90
17728;DHT22;8984;49.268;12.302;2023-04-25T11:29:54;14.20;99.90
17728;DHT22;8984;49.268;12.302;2023-04-25T11:32:21;14.40;99.90
17728;DHT22;8984;49.268;12.302;2023-04-25T11:34:48;14.50;99.90
17728;DHT22;8984;49.268;12.302;2023-04-25T11:37:15;14.30;99.90
17728;DHT22;8984;49.268;12.302;2023-04-25T11:39:46;14.70;99.90
17728;DHT22;8984;49.268;12.302;2023-04-25T11:42:13;15.10;99.90
17728;DHT22;8984;49.268;12.302;2023-04-25T11:44:40;15.50;99.90
17728;DHT22;8984;49.268;12.302;2023-04-25T11:47:08;15.60;99.90
17728;DHT22;8984;49.268;12.302;2023-04-25T11:49:35;15.80;99.90
17728;DHT22;8984;49.268;12.302;2023-04-25T11:52:02;16.00;99.90
17728;DHT22;8984;49.268;12.302;2023-04-25T11:54:30;16.20;99.90
17728;DHT22;8984;49.268;12.302;2023-04-25T11:57:00;16.50;99.90
17728;DHT22;8984;49.268;12.302;2023-04-25T11:59:27;16.60;99.90
17728;DHT22;8984;49.268;12.302;2023-04-25T12:01:54;16.50;99.90
17728;DHT22;8984;49.268;12.302;2023-04-25T12:04:24;16.30;99.90
17728;DHT22;8984;49.268;12.302;2023-04-25T12:06:52;16.00;99.90
17728;DHT22;8984;49.268;12.302;2023-04-25T12:09:21;15.80;99.90
17728;DHT22;8984;49.268;12.302;2023-04-25T12:11:54;15.40;99.90
17728;DHT22;8984;49.268;12.302;2023-04-25T12:14:22;15.20;99.90
17728;DHT22;8984;49.268;12.302;2023-04-25T12:16:50;15.10;99.90
17728;DHT22;8984;49.268;12.302;2023-04-25T12:19:19;15.10;99.90
17728;DHT22;8984;49.268;12.302;2023-04-25T12:21:48;15.00;99.90
17728;DHT22;8984;49.268;12.302;2023-04-25T12:24:16;14.60;99.90
17728;DHT22;8984;49.268;12.302;2023-04-25T12:26:52;14.80;99.90
17728;DHT22;8984;49.268;12.302;2023-04-25T12:29:21;14.60;99.90
17728;DHT22;8984;49.268;12.302;2023-04-25T12:31:48;14.70;99.90
17728;DHT22;8984;49.268;12.302;2023-04-25T12:34:15;14.60;99.90
17728;DHT22;8984;49.268;12.302;2023-04-25T12:36:42;14.90;99.90
17728;DHT22;8984;49.268;12.302;2023-04-25T12:39:15;14.80;99.90
17728;DHT22;8984;49.268;12.302;2023-04-25T12:41:43;14.80;99.90
17728;DHT22;8984;49.268;12.302;2023-04-25T12:44:10;14.70;99.90
17728;DHT22;8984;49.268;12.302;2023-04-25T12:46:37;14.70;99.90
17728;DHT22;8984;49.268;12.302;2023-04-25T12:49:04;15.20;99.90
17728;DHT22;8984;49.268;12.302;2023-04-25T12:51:32;15.30;99.90
17728;DHT22;8984;49.268;12.302;2023-04-25T12:54:00;15.40;99.90
17728;DHT22;8984;49.268;12.302;2023-04-25T12:56:30;15.50;99.90
17728;DHT22;8984;49.268;12.302;2023-04-25T12:58:57;15.60;99.90
17728;DHT22;8984;49.268;12.302;2023-04-25T13:01:24;15.20;99.90
17728;DHT22;8984;49.268;12.302;2023-04-25T13:03:52;15.20;99.90
17728;DHT22;8984;49.268;12.302;2023-04-25T13:06:20;15.30;99.90
17728;DHT22;8984;49.268;12.302;2023-04-25T13:08:47;15.50;99.90
17728;DHT22;8984;49.268;12.302;2023-04-25T13:11:14;15.50;99.90
17728;DHT22;8984;49.268;12.302;2023-04-25T13:13:43;15.30;99.90
17728;DHT22;8984;49.268;12.302;2023-04-25T13:16:10;14.80;99.90
17728;DHT22;8984;49.268;12.302;2023-04-25T13:18:39;14.90;99.90
17728;DHT22;8984;49.268;12.302;2023-04-25T13:21:06;14.90;99.90
17728;DHT22;8984;49.268;12.302;2023-04-25T13:23:33;15.20;99.90
17728;DHT22;8984;49.268;12.302;2023-04-25T13:26:00;15.10;99.90
17728;DHT22;8984;49.268;12.302;2023-04-25T13:28:27;15.00;99.90
17728;DHT22;8984;49.268;12.302;2023-04-25T13:30:55;15.10;99.90
17728;DHT22;8984;49.268;12.302;2023-04-25T13:33:22;15.10;99.90
17728;DHT22;8984;49.268;12.302;2023-04-25T13:35:49;15.10;99.90
17728;DHT22;8984;49.268;12.302;2023-04-25T13:38:20;14.70;99.90
17728;DHT22;8984;49.268;12.302;2023-04-25T13:40:47;14.50;99.90
17728;DHT22;8984;49.268;12.302;2023-04-25T13:43:14;14.50;99.90
17728;DHT22;8984;49.268;12.302;2023-04-25T13:45:41;14.50;99.90
17728;DHT22;8984;49.268;12.302;2023-04-25T13:48:10;14.30;99.90
17728;DHT22;8984;49.268;12.302;2023-04-25T13:50:55;14.60;99.90
17728;DHT22;8984;49.268;12.302;2023-04-25T13:53:24;14.50;99.90
17728;DHT22;8984;49.268;12.302;2023-04-25T13:55:55;14.50;99.90
17728;DHT22;8984;49.268;12.302;2023-04-25T13:58:22;14.50;99.90
17728;DHT22;8984;49.268;12.302;2023-04-25T14:00:59;14.80;99.90
17728;DHT22;8984;49.268;12.302;2023-04-25T14:03:32;14.80;99.90
17728;DHT22;8984;49.268;12.302;2023-04-25T14:06:06;14.90;99.90
17728;DHT22;8984;49.268;12.302;2023-04-25T14:08:40;15.20;99.90
17728;DHT22;8984;49.268;12.302;2023-04-25T14:11:18;15.40;99.90
17728;DHT22;8984;49.268;12.302;2023-04-25T14:14:00;15.50;99.90
17728;DHT22;8984;49.268;12.302;2023-04-25T14:16:33;15.70;99.90
17728;DHT22;8984;49.268;12.302;2023-04-25T14:19:14;15.70;99.90
17728;DHT22;8984;49.268;12.302;2023-04-25T14:21:43;16.00;99.90
17728;DHT22;8984;49.268;12.302;2023-04-25T14:24:14;16.10;99.90
17728;DHT22;8984;49.268;12.302;2023-04-25T14:26:43;15.90;99.90
17728;DHT22;8984;49.268;12.302;2023-04-25T14:29:10;15.50;98.90
17728;DHT22;8984;49.268;12.302;2023-04-25T14:31:38;15.50;99.30
17728;DHT22;8984;49.268;12.302;2023-04-25T14:34:07;15.20;99.00
17728;DHT22;8984;49.268;12.302;2023-04-25T14:36:35;15.30;99.70
17728;DHT22;8984;49.268;12.302;2023-04-25T14:39:02;15.40;99.40
17728;DHT22;8984;49.268;12.302;2023-04-25T14:41:30;14.90;99.10
17728;DHT22;8984;49.268;12.302;2023-04-25T14:43:57;15.20;99.50
17728;DHT22;8984;49.268;12.302;2023-04-25T14:46:24;15.20;99.90
17728;DHT22;8984;49.268;12.302;2023-04-25T14:48:51;15.30;99.90
17728;DHT22;8984;49.268;12.302;2023-04-25T14:51:19;15.20;99.90
17728;DHT22;8984;49.268;12.302;2023-04-25T14:53:46;15.20;99.90
17728;DHT22;8984;49.268;12.302;2023-04-25T14:56:13;15.10;99.90
17728;DHT22;8984;49.268;12.302;2023-04-25T14:58:39;15.10;99.90
17728;DHT22;8984;49.268;12.302;2023-04-25T15:01:06;15.20;99.80
17728;DHT22;8984;49.268;12.302;2023-04-25T15:03:33;14.90;99.30
17728;DHT22;8984;49.268;12.302;2023-04-25T15:06:00;14.90;98.90
17728;DHT22;8984;49.268;12.302;2023-04-25T15:08:28;14.70;99.30
17728;DHT22;8984;49.268;12.302;2023-04-25T15:10:55;14.60;99.40
17728;DHT22;8984;49.268;12.302;2023-04-25T15:13:22;14.80;99.80
17728;DHT22;8984;49.268;12.302;2023-04-25T15:15:49;14.70;99.90
17728;DHT22;8984;49.268;12.302;2023-04-25T15:18:20;14.40;99.90
17728;DHT22;8984;49.268;12.302;2023-04-25T15:20:48;14.40;99.60
17728;DHT22;8984;49.268;12.302;2023-04-25T15:23:15;14.30;99.90
17728;DHT22;8984;49.268;12.302;2023-04-25T15:25:43;14.20;99.90
17728;DHT22;8984;49.268;12.302;2023-04-25T15:28:10;14.20;99.90
17728;DHT22;8984;49.268;12.302;2023-04-25T15:30:39;13.90;99.90
17728;DHT22;8984;49.268;12.302;2023-04-25T15:33:06;13.80;99.90
17728;DHT22;8984;49.268;12.302;2023-04-25T15:35:33;13.70;99.90
17728;DHT22;8984;49.268;12.302;2023-04-25T15:38:00;14.00;99.90
17728;DHT22;8984;49.268;12.302;2023-04-25T15:40:26;14.10;99.90
17728;DHT22;8984;49.268;12.302;2023-04-25T15:42:55;14.10;99.90
17728;DHT22;8984;49.268;12.302;2023-04-25T15:45:23;14.00;99.90
17728;DHT22;8984;49.268;12.302;2023-04-25T15:47:52;14.00;99.90
17728;DHT22;8984;49.268;12.302;2023-04-25T15:50:20;13.80;99.90
17728;DHT22;8984;49.268;12.302;2023-04-25T15:52:47;13.50;99.90
17728;DHT22;8984;49.268;12.302;2023-04-25T15:55:15;13.70;99.90
17728;DHT22;8984;49.268;12.302;2023-04-25T15:57:42;13.80;99.90
17728;DHT22;8984;49.268;12.302;2023-04-25T16:00:15;13.80;99.90
17728;DHT22;8984;49.268;12.302;2023-04-25T16:02:43;13.80;99.90
17728;DHT22;8984;49.268;12.302;2023-04-25T16:05:10;13.90;99.90
17728;DHT22;8984;49.268;12.302;2023-04-25T16:07:39;13.70;99.90
17728;DHT22;8984;49.268;12.302;2023-04-25T16:10:07;13.80;99.90
17728;DHT22;8984;49.268;12.302;2023-04-25T16:12:34;13.60;99.90
17728;DHT22;8984;49.268;12.302;2023-04-25T16:15:02;13.50;99.90
17728;DHT22;8984;49.268;12.302;2023-04-25T16:17:30;13.40;99.90
17728;DHT22;8984;49.268;12.302;2023-04-25T16:19:58;13.10;99.90
17728;DHT22;8984;49.268;12.302;2023-04-25T16:22:26;13.00;99.90
17728;DHT22;8984;49.268;12.302;2023-04-25T16:24:53;12.90;99.90
17728;DHT22;8984;49.268;12.302;2023-04-25T16:27:20;12.80;99.90
17728;DHT22;8984;49.268;12.302;2023-04-25T16:29:47;12.70;99.90
17728;DHT22;8984;49.268;12.302;2023-04-25T16:32:16;12.70;99.90
17728;DHT22;8984;49.268;12.302;2023-04-25T16:34:46;12.70;99.90
17728;DHT22;8984;49.268;12.302;2023-04-25T16:37:13;12.90;99.90
17728;DHT22;8984;49.268;12.302;2023-04-25T16:39:40;12.60;99.90
17728;DHT22;8984;49.268;12.302;2023-04-25T16:42:07;12.50;99.90
17728;DHT22;8984;49.268;12.302;2023-04-25T16:44:34;12.40;99.90
17728;DHT22;8984;49.268;12.302;2023-04-25T16:47:01;12.50;99.90
17728;DHT22;8984;49.268;12.302;2023-04-25T16:49:30;12.40;99.90
17728;DHT22;8984;49.268;12.302;2023-04-25T16:51:59;12.40;99.90
17728;DHT22;8984;49.268;12.302;2023-04-25T16:54:26;12.40;99.90
17728;DHT22;8984;49.268;12.302;2023-04-25T16:56:54;12.40;99.90
17728;DHT22;8984;49.268;12.302;2023-04-25T16:59:24;12.50;99.90
17728;DHT22;8984;49.268;12.302;2023-04-25T17:01:52;12.50;99.90
17728;DHT22;8984;49.268;12.302;2023-04-25T17:04:23;12.20;99.90
17728;DHT22;8984;49.268;12.302;2023-04-25T17:07:06;12.30;99.90
17728;DHT22;8984;49.268;12.302;2023-04-25T17:09:46;12.30;99.90
17728;DHT22;8984;49.268;12.302;2023-04-25T17:12:26;12.20;99.90
17728;DHT22;8984;49.268;12.302;2023-04-25T17:15:03;12.20;99.90
17728;DHT22;8984;49.268;12.302;2023-04-25T17:17:32;12.30;99.90
17728;DHT22;8984;49.268;12.302;2023-04-25T17:20:12;12.20;99.90
17728;DHT22;8984;49.268;12.302;2023-04-25T17:23:02;11.90;99.90
17728;DHT22;8984;49.268;12.302;2023-04-25T17:25:30;12.10;99.90
17728;DHT22;8984;49.268;12.302;2023-04-25T17:28:07;12.00;99.90
17728;DHT22;8984;49.268;12.302;2023-04-25T17:30:36;12.10;99.90
17728;DHT22;8984;49.268;12.302;2023-04-25T17:33:21;12.10;99.90
17728;DHT22;8984;49.268;12.302;2023-04-25T17:35:53;12.10;99.90
17728;DHT22;8984;49.268;12.302;2023-04-25T17:38:31;12.10;99.90
17728;DHT22;8984;49.268;12.302;2023-04-25T17:41:01;12.20;99.90
17728;DHT22;8984;49.268;12.302;2023-04-25T17:43:29;12.20;99.90
17728;DHT22;8984;49.268;12.302;2023-04-25T17:45:57;12.00;99.90
17728;DHT22;8984;49.268;12.302;2023-04-25T17:48:31;11.90;99.90
17728;DHT22;8984;49.268;12.302;2023-04-25T17:51:11;12.00;99.90
17728;DHT22;8984;49.268;12.302;2023-04-25T18:00:24;11.90;99.90
17728;DHT22;8984;49.268;12.302;2023-04-25T18:02:56;11.90;99.90